MYGF METAR and TAF weather

Enter ICAO airport designator
Station Type Date Time Source
MYGF METAR 2019/02/21 00:00 UTC NOAA

MYGF 210000Z 12009KT 9999 SCT015 24/23 A3011


Station Type Date Time Source
MYGF Decoded METAR 2019/02/21 00:00 UTC NOAA

Freeport, Grand Bahama, Bahamas, The (MYGF) 26-33N 078-42W 11M
Feb 20, 2019 - 07:00 PM EST / 2019.02.21 0000 UTC
Wind: from the ESE (120 degrees) at 10 MPH (9 KT):0
Visibility: greater than 7 mile(s):0
Sky conditions: partly cloudy
Temperature: 75 F (24 C)
Dew Point: 73 F (23 C)
Relative Humidity: 94%
Pressure (altimeter): 30.11 in. Hg (1019 hPa)
ob: MYGF 210000Z 12009KT 9999 SCT015 24/23 A3011
cycle: 0

Station Type Date Time Source
MYGF TAF 2019/02/21 12:21 UTC NOAA

TAF MYGF 211100Z 2112/2212 11010G20KT 9999 SCT020


Example: see airport list